sensor_id;sensor_type;location;lat;lon;timestamp;pressure;altitude;pressure_sealevel;temperature;humidity
11987;BME280;6053;51.382;6.768;2023-03-05T00:01:38;101793.09;;;9.55;81.94
11987;BME280;6053;51.382;6.768;2023-03-05T00:04:11;101797.31;;;8.65;85.23
11987;BME280;6053;51.382;6.768;2023-03-05T00:06:41;101802.47;;;8.23;87.08
11987;BME280;6053;51.382;6.768;2023-03-05T00:09:10;101799.41;;;8.99;84.76
11987;BME280;6053;51.382;6.768;2023-03-05T00:11:38;101793.56;;;8.21;88.52
11987;BME280;6053;51.382;6.768;2023-03-05T00:14:07;101789.94;;;8.65;87.66
11987;BME280;6053;51.382;6.768;2023-03-05T00:16:37;101789.75;;;9.10;84.76
11987;BME280;6053;51.382;6.768;2023-03-05T00:19:06;101793.47;;;8.30;85.39
11987;BME280;6053;51.382;6.768;2023-03-05T00:21:36;101786.56;;;8.48;88.29
11987;BME280;6053;51.382;6.768;2023-03-05T00:24:10;101783.91;;;8.77;86.89
11987;BME280;6053;51.382;6.768;2023-03-05T00:26:40;101792.56;;;9.16;84.46
11987;BME280;6053;51.382;6.768;2023-03-05T00:29:10;101782.38;;;9.38;83.18
11987;BME280;6053;51.382;6.768;2023-03-05T00:31:39;101783.78;;;9.28;83.00
11987;BME280;6053;51.382;6.768;2023-03-05T00:34:12;101788.31;;;9.14;83.79
11987;BME280;6053;51.382;6.768;2023-03-05T00:36:42;101779.38;;;9.33;83.55
11987;BME280;6053;51.382;6.768;2023-03-05T00:39:13;101779.72;;;9.24;81.30
11987;BME280;6053;51.382;6.768;2023-03-05T00:41:42;101781.28;;;9.11;84.20
11987;BME280;6053;51.382;6.768;2023-03-05T00:44:11;101778.66;;;9.25;83.58
11987;BME280;6053;51.382;6.768;2023-03-05T00:46:40;101775.63;;;9.41;82.89
11987;BME280;6053;51.382;6.768;2023-03-05T00:49:09;101767.88;;;8.80;83.09
11987;BME280;6053;51.382;6.768;2023-03-05T00:51:37;101766.75;;;8.38;84.92
11987;BME280;6053;51.382;6.768;2023-03-05T00:54:06;101759.47;;;8.88;85.92
11987;BME280;6053;51.382;6.768;2023-03-05T00:56:36;101761.66;;;8.93;85.20
11987;BME280;6053;51.382;6.768;2023-03-05T00:59:04;101759.91;;;8.92;85.27
11987;BME280;6053;51.382;6.768;2023-03-05T01:01:33;101753.22;;;8.58;86.61
11987;BME280;6053;51.382;6.768;2023-03-05T01:04:02;101756.72;;;9.10;85.11
11987;BME280;6053;51.382;6.768;2023-03-05T01:06:30;101753.34;;;9.36;82.98
11987;BME280;6053;51.382;6.768;2023-03-05T01:08:59;101750.16;;;8.68;86.12
11987;BME280;6053;51.382;6.768;2023-03-05T01:11:28;101748.06;;;9.13;84.27
11987;BME280;6053;51.382;6.768;2023-03-05T01:13:59;101740.78;;;9.27;83.67
11987;BME280;6053;51.382;6.768;2023-03-05T01:16:28;101738.97;;;9.12;83.73
11987;BME280;6053;51.382;6.768;2023-03-05T01:18:56;101742.88;;;9.25;83.32
11987;BME280;6053;51.382;6.768;2023-03-05T01:21:25;101738.91;;;9.34;82.96
11987;BME280;6053;51.382;6.768;2023-03-05T01:23:54;101741.69;;;9.34;83.17
11987;BME280;6053;51.382;6.768;2023-03-05T01:26:22;101740.66;;;9.13;84.08
11987;BME280;6053;51.382;6.768;2023-03-05T01:28:51;101729.38;;;9.30;83.32
11987;BME280;6053;51.382;6.768;2023-03-05T01:31:21;101725.88;;;9.21;83.51
11987;BME280;6053;51.382;6.768;2023-03-05T01:33:51;101733.16;;;9.29;83.42
11987;BME280;6053;51.382;6.768;2023-03-05T01:36:21;101714.03;;;9.20;83.33
11987;BME280;6053;51.382;6.768;2023-03-05T01:38:51;101720.00;;;9.24;83.15
11987;BME280;6053;51.382;6.768;2023-03-05T01:41:20;101714.31;;;9.26;83.14
11987;BME280;6053;51.382;6.768;2023-03-05T01:43:49;101711.38;;;9.06;82.84
11987;BME280;6053;51.382;6.768;2023-03-05T01:46:35;101712.47;;;8.62;81.76
11987;BME280;6053;51.382;6.768;2023-03-05T01:49:12;101696.69;;;8.98;84.57
11987;BME280;6053;51.382;6.768;2023-03-05T01:51:59;101701.91;;;9.15;83.90
11987;BME280;6053;51.382;6.768;2023-03-05T01:54:33;101703.06;;;8.78;81.36
11987;BME280;6053;51.382;6.768;2023-03-05T01:57:08;101697.53;;;9.20;83.57
11987;BME280;6053;51.382;6.768;2023-03-05T01:59:38;101698.19;;;9.23;83.40
11987;BME280;6053;51.382;6.768;2023-03-05T02:02:10;101690.16;;;9.28;82.61
11987;BME280;6053;51.382;6.768;2023-03-05T02:04:43;101686.16;;;9.30;82.65
11987;BME280;6053;51.382;6.768;2023-03-05T02:07:13;101685.50;;;9.28;82.44
11987;BME280;6053;51.382;6.768;2023-03-05T02:09:43;101684.25;;;9.31;82.65
11987;BME280;6053;51.382;6.768;2023-03-05T02:12:12;101684.94;;;9.11;79.78
11987;BME280;6053;51.382;6.768;2023-03-05T02:14:43;101682.47;;;9.16;83.11
11987;BME280;6053;51.382;6.768;2023-03-05T02:17:14;101680.19;;;9.27;82.49
11987;BME280;6053;51.382;6.768;2023-03-05T02:19:48;101672.41;;;9.02;83.49
11987;BME280;6053;51.382;6.768;2023-03-05T02:22:20;101668.13;;;9.00;84.39
11987;BME280;6053;51.382;6.768;2023-03-05T02:24:49;101667.84;;;9.16;83.21
11987;BME280;6053;51.382;6.768;2023-03-05T02:27:21;101666.03;;;9.30;82.69
11987;BME280;6053;51.382;6.768;2023-03-05T02:29:53;101662.00;;;9.26;82.49
11987;BME280;6053;51.382;6.768;2023-03-05T02:32:22;101658.63;;;9.30;82.33
11987;BME280;6053;51.382;6.768;2023-03-05T02:34:50;101657.97;;;9.28;82.49
11987;BME280;6053;51.382;6.768;2023-03-05T02:37:20;101651.16;;;9.24;82.69
11987;BME280;6053;51.382;6.768;2023-03-05T02:39:49;101654.66;;;8.83;85.00
11987;BME280;6053;51.382;6.768;2023-03-05T02:42:17;101653.13;;;9.02;83.76
11987;BME280;6053;51.382;6.768;2023-03-05T02:44:46;101648.78;;;8.86;83.92
11987;BME280;6053;51.382;6.768;2023-03-05T02:47:15;101639.47;;;9.15;83.19
11987;BME280;6053;51.382;6.768;2023-03-05T02:49:43;101640.94;;;9.18;83.12
11987;BME280;6053;51.382;6.768;2023-03-05T02:52:12;101641.78;;;9.18;82.92
11987;BME280;6053;51.382;6.768;2023-03-05T02:54:42;101640.31;;;9.16;82.36
11987;BME280;6053;51.382;6.768;2023-03-05T02:57:10;101635.25;;;9.19;82.44
11987;BME280;6053;51.382;6.768;2023-03-05T02:59:39;101635.66;;;9.16;82.43
11987;BME280;6053;51.382;6.768;2023-03-05T03:02:08;101625.84;;;9.07;82.81
11987;BME280;6053;51.382;6.768;2023-03-05T03:04:36;101623.41;;;9.19;82.96
11987;BME280;6053;51.382;6.768;2023-03-05T03:07:05;101619.22;;;9.30;82.19
11987;BME280;6053;51.382;6.768;2023-03-05T03:09:34;101617.94;;;9.26;82.00
11987;BME280;6053;51.382;6.768;2023-03-05T03:12:05;101614.97;;;9.27;82.13
11987;BME280;6053;51.382;6.768;2023-03-05T03:14:35;101613.63;;;9.16;81.71
11987;BME280;6053;51.382;6.768;2023-03-05T03:17:05;101604.97;;;9.19;82.62
11987;BME280;6053;51.382;6.768;2023-03-05T03:19:35;101602.63;;;9.16;82.60
11987;BME280;6053;51.382;6.768;2023-03-05T03:22:04;101601.47;;;9.04;82.88
11987;BME280;6053;51.382;6.768;2023-03-05T03:24:35;101603.28;;;8.62;85.31
11987;BME280;6053;51.382;6.768;2023-03-05T03:27:06;101593.53;;;8.88;84.32
11987;BME280;6053;51.382;6.768;2023-03-05T03:29:35;101592.78;;;9.01;83.23
11987;BME280;6053;51.382;6.768;2023-03-05T03:32:04;101592.63;;;9.09;82.74
11987;BME280;6053;51.382;6.768;2023-03-05T03:34:34;101589.66;;;9.10;82.57
11987;BME280;6053;51.382;6.768;2023-03-05T03:37:03;101589.09;;;8.59;85.89
11987;BME280;6053;51.382;6.768;2023-03-05T03:39:31;101582.56;;;8.94;83.18
11987;BME280;6053;51.382;6.768;2023-03-05T03:42:00;101583.84;;;8.98;82.79
11987;BME280;6053;51.382;6.768;2023-03-05T03:44:30;101582.47;;;8.81;83.65
11987;BME280;6053;51.382;6.768;2023-03-05T03:46:59;101582.38;;;8.68;85.15
11987;BME280;6053;51.382;6.768;2023-03-05T03:49:27;101581.53;;;8.95;83.67
11987;BME280;6053;51.382;6.768;2023-03-05T03:51:56;101572.75;;;9.13;83.06
11987;BME280;6053;51.382;6.768;2023-03-05T03:54:25;101572.75;;;9.13;82.48
11987;BME280;6053;51.382;6.768;2023-03-05T03:56:54;101569.25;;;8.98;83.20
11987;BME280;6053;51.382;6.768;2023-03-05T03:59:22;101568.56;;;8.89;83.18
11987;BME280;6053;51.382;6.768;2023-03-05T04:01:52;101568.41;;;8.41;85.77
11987;BME280;6053;51.382;6.768;2023-03-05T04:04:21;101561.78;;;8.85;84.50
11987;BME280;6053;51.382;6.768;2023-03-05T04:06:50;101558.69;;;9.02;83.16
11987;BME280;6053;51.382;6.768;2023-03-05T04:09:18;101557.03;;;9.07;82.55
11987;BME280;6053;51.382;6.768;2023-03-05T04:11:47;101547.31;;;9.11;81.94
11987;BME280;6053;51.382;6.768;2023-03-05T04:14:15;101555.34;;;9.06;82.65
11987;BME280;6053;51.382;6.768;2023-03-05T04:16:44;101550.69;;;9.07;82.72
11987;BME280;6053;51.382;6.768;2023-03-05T04:19:14;101549.81;;;9.00;82.70
11987;BME280;6053;51.382;6.768;2023-03-05T04:21:43;101543.91;;;9.03;82.89
11987;BME280;6053;51.382;6.768;2023-03-05T04:24:11;101548.78;;;9.07;82.46
11987;BME280;6053;51.382;6.768;2023-03-05T04:26:40;101539.47;;;9.08;82.52
11987;BME280;6053;51.382;6.768;2023-03-05T04:29:08;101534.56;;;9.04;82.66
11987;BME280;6053;51.382;6.768;2023-03-05T04:31:37;101530.75;;;9.05;82.91
11987;BME280;6053;51.382;6.768;2023-03-05T04:34:05;101522.25;;;8.93;82.67
11987;BME280;6053;51.382;6.768;2023-03-05T04:36:35;101533.47;;;8.98;83.18
11987;BME280;6053;51.382;6.768;2023-03-05T04:39:04;101527.81;;;9.06;82.54
11987;BME280;6053;51.382;6.768;2023-03-05T04:41:33;101517.81;;;8.64;84.46
11987;BME280;6053;51.382;6.768;2023-03-05T04:44:01;101522.88;;;8.95;83.31
11987;BME280;6053;51.382;6.768;2023-03-05T04:46:30;101517.66;;;9.07;82.49
11987;BME280;6053;51.382;6.768;2023-03-05T04:48:59;101513.88;;;8.73;85.00
11987;BME280;6053;51.382;6.768;2023-03-05T04:51:28;101515.94;;;8.99;83.29
11987;BME280;6053;51.382;6.768;2023-03-05T04:53:58;101514.22;;;8.63;83.94
11987;BME280;6053;51.382;6.768;2023-03-05T04:56:26;101500.63;;;8.34;87.35
11987;BME280;6053;51.382;6.768;2023-03-05T04:58:55;101502.47;;;8.76;84.76
11987;BME280;6053;51.382;6.768;2023-03-05T05:01:24;101493.13;;;8.42;82.65
11987;BME280;6053;51.382;6.768;2023-03-05T05:03:53;101493.59;;;8.81;83.93
11987;BME280;6053;51.382;6.768;2023-03-05T05:06:21;101497.88;;;8.90;83.55
11987;BME280;6053;51.382;6.768;2023-03-05T05:08:50;101501.25;;;8.92;82.85
11987;BME280;6053;51.382;6.768;2023-03-05T05:11:20;101507.69;;;8.99;82.89
11987;BME280;6053;51.382;6.768;2023-03-05T05:13:48;101502.22;;;9.06;82.61
11987;BME280;6053;51.382;6.768;2023-03-05T05:16:17;101505.78;;;9.00;82.64
11987;BME280;6053;51.382;6.768;2023-03-05T05:18:46;101505.78;;;9.00;82.94
11987;BME280;6053;51.382;6.768;2023-03-05T05:21:15;101502.81;;;9.01;82.59
11987;BME280;6053;51.382;6.768;2023-03-05T05:23:45;101502.97;;;8.93;83.08
11987;BME280;6053;51.382;6.768;2023-03-05T05:26:14;101487.81;;;8.41;83.83
11987;BME280;6053;51.382;6.768;2023-03-05T05:28:44;101486.31;;;8.38;86.19
11987;BME280;6053;51.382;6.768;2023-03-05T05:31:14;101487.16;;;8.17;85.22
11987;BME280;6053;51.382;6.768;2023-03-05T05:33:44;101485.78;;;8.49;84.30
11987;BME280;6053;51.382;6.768;2023-03-05T05:36:16;101486.31;;;8.66;84.45
11987;BME280;6053;51.382;6.768;2023-03-05T05:38:46;101487.28;;;8.52;84.16
11987;BME280;6053;51.382;6.768;2023-03-05T05:41:16;101487.13;;;7.89;87.53
11987;BME280;6053;51.382;6.768;2023-03-05T05:43:48;101484.13;;;8.34;86.45
11987;BME280;6053;51.382;6.768;2023-03-05T05:46:18;101482.97;;;8.43;85.54
11987;BME280;6053;51.382;6.768;2023-03-05T05:48:47;101480.75;;;7.09;81.92
11987;BME280;6053;51.382;6.768;2023-03-05T05:51:18;101480.03;;;7.95;85.86
11987;BME280;6053;51.382;6.768;2023-03-05T05:53:47;101483.03;;;7.78;83.10
11987;BME280;6053;51.382;6.768;2023-03-05T05:56:16;101484.63;;;7.00;88.03
11987;BME280;6053;51.382;6.768;2023-03-05T05:58:47;101472.78;;;8.15;88.60
11987;BME280;6053;51.382;6.768;2023-03-05T06:01:18;101471.91;;;8.64;85.29
11987;BME280;6053;51.382;6.768;2023-03-05T06:03:48;101475.63;;;8.50;85.33
11987;BME280;6053;51.382;6.768;2023-03-05T06:06:18;101481.66;;;8.67;84.67
11987;BME280;6053;51.382;6.768;2023-03-05T06:08:47;101476.22;;;7.96;86.96
11987;BME280;6053;51.382;6.768;2023-03-05T06:11:16;101480.63;;;8.40;83.97
11987;BME280;6053;51.382;6.768;2023-03-05T06:13:47;101477.34;;;8.30;86.29
11987;BME280;6053;51.382;6.768;2023-03-05T06:16:18;101474.94;;;8.20;85.03
11987;BME280;6053;51.382;6.768;2023-03-05T06:18:47;101476.78;;;8.13;87.70
11987;BME280;6053;51.382;6.768;2023-03-05T06:21:18;101481.81;;;7.88;87.42
11987;BME280;6053;51.382;6.768;2023-03-05T06:23:48;101472.25;;;8.26;85.67
11987;BME280;6053;51.382;6.768;2023-03-05T06:26:19;101467.31;;;8.15;86.41
11987;BME280;6053;51.382;6.768;2023-03-05T06:28:50;101471.81;;;8.51;82.64
11987;BME280;6053;51.382;6.768;2023-03-05T06:31:20;101464.53;;;7.29;88.23
11987;BME280;6053;51.382;6.768;2023-03-05T06:33:50;101464.22;;;7.39;89.89
11987;BME280;6053;51.382;6.768;2023-03-05T06:36:20;101465.75;;;8.34;86.92
11987;BME280;6053;51.382;6.768;2023-03-05T06:38:49;101465.78;;;8.62;84.63
11987;BME280;6053;51.382;6.768;2023-03-05T06:41:21;101463.13;;;8.47;84.15
11987;BME280;6053;51.382;6.768;2023-03-05T06:43:52;101468.97;;;7.88;82.53
11987;BME280;6053;51.382;6.768;2023-03-05T06:46:22;101457.28;;;7.43;84.47
11987;BME280;6053;51.382;6.768;2023-03-05T06:48:54;101468.19;;;7.00;92.90
11987;BME280;6053;51.382;6.768;2023-03-05T06:51:26;101461.03;;;8.00;88.27
11987;BME280;6053;51.382;6.768;2023-03-05T06:53:58;101463.69;;;8.15;86.27
11987;BME280;6053;51.382;6.768;2023-03-05T06:56:27;101464.50;;;8.37;85.53
11987;BME280;6053;51.382;6.768;2023-03-05T06:58:57;101468.66;;;8.04;87.56
11987;BME280;6053;51.382;6.768;2023-03-05T07:01:26;101469.00;;;8.44;83.87
11987;BME280;6053;51.382;6.768;2023-03-05T07:03:55;101457.88;;;8.03;87.88
11987;BME280;6053;51.382;6.768;2023-03-05T07:06:26;101457.25;;;7.79;87.55
11987;BME280;6053;51.382;6.768;2023-03-05T07:08:55;101454.25;;;8.45;84.57
11987;BME280;6053;51.382;6.768;2023-03-05T07:11:24;101459.47;;;6.97;92.01
11987;BME280;6053;51.382;6.768;2023-03-05T07:13:53;101454.00;;;7.48;92.89
11987;BME280;6053;51.382;6.768;2023-03-05T07:16:24;101446.53;;;7.63;92.35
11987;BME280;6053;51.382;6.768;2023-03-05T07:18:55;101451.75;;;8.29;88.08
11987;BME280;6053;51.382;6.768;2023-03-05T07:21:26;101453.63;;;8.50;85.95
11987;BME280;6053;51.382;6.768;2023-03-05T07:23:57;101450.09;;;8.35;86.93
11987;BME280;6053;51.382;6.768;2023-03-05T07:26:26;101451.16;;;8.34;87.02
11987;BME280;6053;51.382;6.768;2023-03-05T07:28:54;101450.31;;;7.84;88.64
11987;BME280;6053;51.382;6.768;2023-03-05T07:31:25;101442.34;;;7.89;88.78
11987;BME280;6053;51.382;6.768;2023-03-05T07:33:58;101441.41;;;8.59;85.66
11987;BME280;6053;51.382;6.768;2023-03-05T07:36:27;101443.66;;;8.84;83.92
11987;BME280;6053;51.382;6.768;2023-03-05T07:38:56;101435.69;;;8.95;82.40
11987;BME280;6053;51.382;6.768;2023-03-05T07:41:25;101440.56;;;8.59;84.15
11987;BME280;6053;51.382;6.768;2023-03-05T07:43:54;101439.84;;;8.85;83.72
11987;BME280;6053;51.382;6.768;2023-03-05T07:46:26;101446.03;;;8.93;83.04
11987;BME280;6053;51.382;6.768;2023-03-05T07:48:56;101439.00;;;7.93;85.41
11987;BME280;6053;51.382;6.768;2023-03-05T07:51:26;101444.44;;;8.15;87.62
11987;BME280;6053;51.382;6.768;2023-03-05T07:53:56;101435.09;;;7.60;88.79
11987;BME280;6053;51.382;6.768;2023-03-05T07:56:27;101432.13;;;7.61;85.08
11987;BME280;6053;51.382;6.768;2023-03-05T07:58:58;101435.56;;;8.41;87.00
11987;BME280;6053;51.382;6.768;2023-03-05T08:01:30;101436.31;;;8.56;85.93
11987;BME280;6053;51.382;6.768;2023-03-05T08:03:59;101432.47;;;8.85;84.00
11987;BME280;6053;51.382;6.768;2023-03-05T08:06:28;101428.25;;;8.89;83.22
11987;BME280;6053;51.382;6.768;2023-03-05T08:08:57;101423.63;;;8.96;83.23
11987;BME280;6053;51.382;6.768;2023-03-05T08:11:26;101428.09;;;8.63;84.84
11987;BME280;6053;51.382;6.768;2023-03-05T08:13:55;101430.97;;;8.83;83.90
11987;BME280;6053;51.382;6.768;2023-03-05T08:16:27;101423.00;;;8.60;85.17
11987;BME280;6053;51.382;6.768;2023-03-05T08:18:57;101423.47;;;8.35;86.64
11987;BME280;6053;51.382;6.768;2023-03-05T08:21:27;101429.78;;;8.29;87.61
11987;BME280;6053;51.382;6.768;2023-03-05T08:23:56;101422.72;;;6.91;96.21
11987;BME280;6053;51.382;6.768;2023-03-05T08:26:27;101419.38;;;7.96;90.72
11987;BME280;6053;51.382;6.768;2023-03-05T08:28:55;101418.16;;;8.34;88.45
11987;BME280;6053;51.382;6.768;2023-03-05T08:31:25;101408.97;;;7.06;94.08
11987;BME280;6053;51.382;6.768;2023-03-05T08:33:59;101411.16;;;7.75;93.63
11987;BME280;6053;51.382;6.768;2023-03-05T08:36:28;101406.31;;;8.33;89.54
11987;BME280;6053;51.382;6.768;2023-03-05T08:38:57;101406.66;;;8.93;85.52
11987;BME280;6053;51.382;6.768;2023-03-05T08:41:26;101404.81;;;8.59;86.88
11987;BME280;6053;51.382;6.768;2023-03-05T08:43:55;101402.09;;;8.37;86.06
11987;BME280;6053;51.382;6.768;2023-03-05T08:46:24;101402.88;;;8.24;89.07
11987;BME280;6053;51.382;6.768;2023-03-05T08:48:53;101392.28;;;7.65;92.50
11987;BME280;6053;51.382;6.768;2023-03-05T08:51:24;101399.97;;;8.04;90.03
11987;BME280;6053;51.382;6.768;2023-03-05T08:53:54;101397.75;;;8.43;87.77
11987;BME280;6053;51.382;6.768;2023-03-05T08:56:23;101390.44;;;7.29;93.80
11987;BME280;6053;51.382;6.768;2023-03-05T08:58:54;101388.56;;;8.36;89.63
11987;BME280;6053;51.382;6.768;2023-03-05T09:01:23;101394.97;;;8.84;86.68
11987;BME280;6053;51.382;6.768;2023-03-05T09:03:52;101388.78;;;8.69;87.08
11987;BME280;6053;51.382;6.768;2023-03-05T09:06:22;101389.63;;;9.31;83.60
11987;BME280;6053;51.382;6.768;2023-03-05T09:08:51;101387.22;;;8.53;86.64
11987;BME280;6053;51.382;6.768;2023-03-05T09:11:20;101391.06;;;9.07;85.33
11987;BME280;6053;51.382;6.768;2023-03-05T09:13:49;101385.44;;;7.83;88.54
11987;BME280;6053;51.382;6.768;2023-03-05T09:16:18;101379.00;;;7.04;99.47
11987;BME280;6053;51.382;6.768;2023-03-05T09:18:47;101382.41;;;6.92;98.66
11987;BME280;6053;51.382;6.768;2023-03-05T09:21:17;101377.59;;;8.08;93.98
11987;BME280;6053;51.382;6.768;2023-03-05T09:23:47;101373.09;;;8.00;92.20
11987;BME280;6053;51.382;6.768;2023-03-05T09:26:16;101363.47;;;8.87;87.94
11987;BME280;6053;51.382;6.768;2023-03-05T09:28:47;101368.66;;;8.68;85.93
11987;BME280;6053;51.382;6.768;2023-03-05T09:31:16;101372.03;;;8.64;88.94
11987;BME280;6053;51.382;6.768;2023-03-05T09:33:47;101366.31;;;8.59;89.77
11987;BME280;6053;51.382;6.768;2023-03-05T09:36:18;101360.38;;;7.92;87.74
11987;BME280;6053;51.382;6.768;2023-03-05T09:38:49;101362.78;;;8.78;87.67
11987;BME280;6053;51.382;6.768;2023-03-05T09:41:25;101362.47;;;9.14;85.08
11987;BME280;6053;51.382;6.768;2023-03-05T09:44:05;101357.41;;;8.22;87.68
11987;BME280;6053;51.382;6.768;2023-03-05T09:46:47;101357.53;;;8.83;86.77
11987;BME280;6053;51.382;6.768;2023-03-05T09:49:23;101363.06;;;8.14;90.41
11987;BME280;6053;51.382;6.768;2023-03-05T09:52:04;101353.13;;;8.89;87.05
11987;BME280;6053;51.382;6.768;2023-03-05T09:54:38;101355.59;;;8.08;86.79
11987;BME280;6053;51.382;6.768;2023-03-05T09:57:15;101354.13;;;7.77;89.49
11987;BME280;6053;51.382;6.768;2023-03-05T09:59:48;101349.72;;;8.11;91.00
11987;BME280;6053;51.382;6.768;2023-03-05T10:02:22;101351.16;;;8.76;87.19
11987;BME280;6053;51.382;6.768;2023-03-05T10:04:54;101348.88;;;8.45;86.47
11987;BME280;6053;51.382;6.768;2023-03-05T10:07:27;101347.25;;;8.57;89.80
11987;BME280;6053;51.382;6.768;2023-03-05T10:10:02;101344.28;;;9.13;85.39
11987;BME280;6053;51.382;6.768;2023-03-05T10:12:39;101342.63;;;9.26;84.41
11987;BME280;6053;51.382;6.768;2023-03-05T10:15:12;101334.19;;;9.74;82.03
11987;BME280;6053;51.382;6.768;2023-03-05T10:17:53;101328.56;;;8.39;85.41
11987;BME280;6053;51.382;6.768;2023-03-05T10:20:40;101324.22;;;9.33;83.48
11987;BME280;6053;51.382;6.768;2023-03-05T10:23:22;101328.97;;;8.91;82.52
11987;BME280;6053;51.382;6.768;2023-03-05T10:28:56;101325.91;;;8.59;85.63
11987;BME280;6053;51.382;6.768;2023-03-05T10:31:39;101314.16;;;7.46;89.50
11987;BME280;6053;51.382;6.768;2023-03-05T10:34:29;101306.03;;;8.22;86.00
11987;BME280;6053;51.382;6.768;2023-03-05T10:37:12;101306.75;;;8.38;87.58
11987;BME280;6053;51.382;6.768;2023-03-05T10:40:12;101306.25;;;8.62;88.22
11987;BME280;6053;51.382;6.768;2023-03-05T10:42:51;101305.56;;;8.54;87.45
11987;BME280;6053;51.382;6.768;2023-03-05T10:45:25;101310.03;;;7.57;92.04
11987;BME280;6053;51.382;6.768;2023-03-05T10:50:34;101296.56;;;8.32;91.01
11987;BME280;6053;51.382;6.768;2023-03-05T10:53:14;101306.50;;;8.74;88.63
11987;BME280;6053;51.382;6.768;2023-03-05T10:55:44;101297.66;;;8.85;86.18
11987;BME280;6053;51.382;6.768;2023-03-05T10:58:15;101287.09;;;9.22;85.72
11987;BME280;6053;51.382;6.768;2023-03-05T11:00:59;101289.88;;;9.49;82.14
11987;BME280;6053;51.382;6.768;2023-03-05T11:03:48;101287.75;;;9.24;85.03
11987;BME280;6053;51.382;6.768;2023-03-05T11:06:34;101283.72;;;9.13;81.92
11987;BME280;6053;51.382;6.768;2023-03-05T11:09:21;101279.72;;;9.16;86.09
11987;BME280;6053;51.382;6.768;2023-03-05T11:12:10;101281.63;;;8.47;86.15
11987;BME280;6053;51.382;6.768;2023-03-05T11:14:43;101279.81;;;8.68;84.41
11987;BME280;6053;51.382;6.768;2023-03-05T11:17:32;101276.13;;;9.09;84.11
11987;BME280;6053;51.382;6.768;2023-03-05T11:20:30;101271.31;;;8.56;81.83
11987;BME280;6053;51.382;6.768;2023-03-05T11:23:10;101266.34;;;7.97;82.65
11987;BME280;6053;51.382;6.768;2023-03-05T11:25:59;101267.81;;;8.89;82.43
11987;BME280;6053;51.382;6.768;2023-03-05T11:28:33;101251.50;;;8.94;83.58
11987;BME280;6053;51.382;6.768;2023-03-05T11:31:09;101262.50;;;8.87;79.51
11987;BME280;6053;51.382;6.768;2023-03-05T11:33:56;101254.31;;;9.20;78.97
11987;BME280;6053;51.382;6.768;2023-03-05T11:36:27;101248.16;;;9.32;76.65
11987;BME280;6053;51.382;6.768;2023-03-05T11:38:58;101244.09;;;9.74;79.34
11987;BME280;6053;51.382;6.768;2023-03-05T11:41:30;101248.47;;;10.02;77.43
11987;BME280;6053;51.382;6.768;2023-03-05T11:44:02;101234.38;;;9.45;81.07
11987;BME280;6053;51.382;6.768;2023-03-05T11:46:42;101246.47;;;9.31;75.13
11987;BME280;6053;51.382;6.768;2023-03-05T11:49:15;101246.66;;;8.96;76.15
11987;BME280;6053;51.382;6.768;2023-03-05T11:51:53;101238.19;;;9.11;81.92
11987;BME280;6053;51.382;6.768;2023-03-05T11:54:29;101231.16;;;8.75;76.10
11987;BME280;6053;51.382;6.768;2023-03-05T11:57:02;101218.91;;;9.51;79.80
11987;BME280;6053;51.382;6.768;2023-03-05T11:59:34;101221.66;;;9.57;75.98
11987;BME280;6053;51.382;6.768;2023-03-05T12:02:15;101217.25;;;9.23;74.43
11987;BME280;6053;51.382;6.768;2023-03-05T12:04:46;101224.00;;;9.60;74.07
11987;BME280;6053;51.382;6.768;2023-03-05T12:07:18;101204.25;;;9.77;76.28
11987;BME280;6053;51.382;6.768;2023-03-05T12:09:49;101202.38;;;9.57;74.45
11987;BME280;6053;51.382;6.768;2023-03-05T12:12:29;101205.13;;;8.64;76.15
11987;BME280;6053;51.382;6.768;2023-03-05T12:15:17;101200.47;;;9.51;75.58
11987;BME280;6053;51.382;6.768;2023-03-05T12:17:59;101192.44;;;8.70;75.48
11987;BME280;6053;51.382;6.768;2023-03-05T12:20:37;101186.19;;;7.80;83.10
11987;BME280;6053;51.382;6.768;2023-03-05T12:23:13;101190.06;;;7.92;85.32
11987;BME280;6053;51.382;6.768;2023-03-05T12:25:46;101183.31;;;8.49;88.03
11987;BME280;6053;51.382;6.768;2023-03-05T12:28:16;101179.53;;;7.61;83.10
11987;BME280;6053;51.382;6.768;2023-03-05T12:31:11;101178.50;;;9.18;85.77
11987;BME280;6053;51.382;6.768;2023-03-05T12:33:54;101164.72;;;9.25;82.19
11987;BME280;6053;51.382;6.768;2023-03-05T12:36:36;101159.72;;;9.86;81.83
11987;BME280;6053;51.382;6.768;2023-03-05T12:42:45;101150.13;;;8.97;80.00
11987;BME280;6053;51.382;6.768;2023-03-05T12:45:35;101150.38;;;8.15;81.38
11987;BME280;6053;51.382;6.768;2023-03-05T12:51:34;101130.69;;;8.99;82.00
11987;BME280;6053;51.382;6.768;2023-03-05T12:54:25;101135.09;;;8.54;85.52
11987;BME280;6053;51.382;6.768;2023-03-05T12:56:55;101136.56;;;9.29;84.62
11987;BME280;6053;51.382;6.768;2023-03-05T12:59:37;101129.59;;;9.20;77.95
11987;BME280;6053;51.382;6.768;2023-03-05T13:02:19;101114.56;;;9.87;82.12
11987;BME280;6053;51.382;6.768;2023-03-05T13:04:49;101117.06;;;9.31;83.08
11987;BME280;6053;51.382;6.768;2023-03-05T13:07:21;101115.34;;;9.50;80.40
11987;BME280;6053;51.382;6.768;2023-03-05T13:09:54;101104.31;;;9.56;81.34
11987;BME280;6053;51.382;6.768;2023-03-05T13:12:25;101109.06;;;9.16;78.81
11987;BME280;6053;51.382;6.768;2023-03-05T13:14:58;101091.75;;;8.76;79.78
11987;BME280;6053;51.382;6.768;2023-03-05T13:17:36;101092.81;;;9.73;82.77
11987;BME280;6053;51.382;6.768;2023-03-05T13:20:27;101085.34;;;9.08;73.93
11987;BME280;6053;51.382;6.768;2023-03-05T13:23:15;101087.81;;;9.95;80.43
11987;BME280;6053;51.382;6.768;2023-03-05T13:25:54;101085.09;;;9.88;78.11
11987;BME280;6053;51.382;6.768;2023-03-05T13:28:24;101082.19;;;9.76;74.96
11987;BME280;6053;51.382;6.768;2023-03-05T13:30:55;101076.03;;;10.12;76.15
11987;BME280;6053;51.382;6.768;2023-03-05T13:33:26;101073.19;;;10.32;77.72
11987;BME280;6053;51.382;6.768;2023-03-05T13:35:56;101075.97;;;10.26;75.46
11987;BME280;6053;51.382;6.768;2023-03-05T13:38:30;101071.28;;;9.95;77.11
11987;BME280;6053;51.382;6.768;2023-03-05T13:41:07;101071.25;;;9.56;74.70
11987;BME280;6053;51.382;6.768;2023-03-05T13:43:42;101065.16;;;9.93;78.87
11987;BME280;6053;51.382;6.768;2023-03-05T13:46:11;101061.56;;;9.40;81.86
11987;BME280;6053;51.382;6.768;2023-03-05T13:48:39;101059.97;;;9.64;77.84